createdAt,value
2017-12-11T00:01:52.693Z,83.30
2017-12-11T00:04:21.522Z,83.80
2017-12-11T00:06:50.361Z,84.10
2017-12-11T00:09:19.185Z,84.40
2017-12-11T00:11:47.873Z,84.20
2017-12-11T00:14:16.743Z,84.60
2017-12-11T00:16:45.582Z,85.00
2017-12-11T00:19:14.424Z,85.30
2017-12-11T00:21:43.249Z,85.80
2017-12-11T00:24:12.073Z,86.00
2017-12-11T00:26:40.893Z,86.80
2017-12-11T00:29:09.721Z,86.40
2017-12-11T00:31:38.541Z,86.80
2017-12-11T00:34:07.361Z,88.00
2017-12-11T00:36:36.181Z,87.60
2017-12-11T00:39:04.385Z,87.70
2017-12-11T00:41:33.980Z,88.10
2017-12-11T00:44:02.845Z,88.10
2017-12-11T00:46:31.378Z,88.50
2017-12-11T00:48:59.585Z,88.60
2017-12-11T00:51:28.868Z,88.70
2017-12-11T00:53:57.705Z,88.80
2017-12-11T00:56:26.538Z,89.20
2017-12-11T00:58:55.349Z,89.30
2017-12-11T01:01:24.232Z,89.60
2017-12-11T01:03:52.927Z,89.40
2017-12-11T01:06:21.453Z,89.30
2017-12-11T01:08:49.998Z,89.60
2017-12-11T01:11:18.538Z,89.50
2017-12-11T01:13:48.213Z,89.30
2017-12-11T01:16:17.844Z,89.40
2017-12-11T01:18:46.681Z,89.30
2017-12-11T01:21:15.528Z,90.00
2017-12-11T01:23:44.353Z,88.50
2017-12-11T01:26:13.175Z,88.20
2017-12-11T01:28:42.022Z,87.70
2017-12-11T01:31:10.817Z,87.20
2017-12-11T01:33:39.897Z,86.30
2017-12-11T01:36:09.494Z,84.50
2017-12-11T01:38:39.093Z,84.60
2017-12-11T01:41:07.341Z,84.60
2017-12-11T01:43:35.569Z,84.50
2017-12-11T01:46:06.525Z,83.90
2017-12-11T01:48:34.747Z,84.00
2017-12-11T01:51:03.264Z,83.10
2017-12-11T01:53:32.871Z,81.70
2017-12-11T01:56:02.469Z,81.30
2017-12-11T01:58:31.300Z,81.20
2017-12-11T02:01:00.130Z,81.70
2017-12-11T02:03:28.969Z,80.90
2017-12-11T02:05:57.804Z,80.80
2017-12-11T02:08:26.630Z,80.60
2017-12-11T02:10:56.261Z,80.00
2017-12-11T02:13:24.788Z,80.00
2017-12-11T02:15:53.609Z,79.60
2017-12-11T02:18:22.902Z,78.70
2017-12-11T02:20:51.424Z,78.70
2017-12-11T02:23:20.297Z,78.60
2017-12-11T02:25:49.261Z,77.70
2017-12-11T02:28:17.779Z,77.70
2017-12-11T02:30:46.297Z,77.20
2017-12-11T02:33:15.154Z,76.40
2017-12-11T02:35:43.686Z,75.50
2017-12-11T02:38:12.220Z,75.30
2017-12-11T02:40:41.059Z,75.30
2017-12-11T02:43:09.590Z,75.50
2017-12-11T02:45:38.133Z,75.20
2017-12-11T02:48:06.347Z,75.00
2017-12-11T02:50:35.310Z,74.70
2017-12-11T02:53:03.541Z,74.70
2017-12-11T02:55:32.074Z,74.50
2017-12-11T02:58:00.917Z,74.20
2017-12-11T03:00:29.733Z,74.80
2017-12-11T03:02:58.570Z,74.30
2017-12-11T03:05:27.417Z,74.30
2017-12-11T03:07:56.258Z,74.30
2017-12-11T03:10:25.078Z,74.60
2017-12-11T03:12:53.901Z,74.80
2017-12-11T03:15:22.734Z,75.10
2017-12-11T03:17:51.552Z,75.30
2017-12-11T03:20:20.390Z,75.10
2017-12-11T03:22:49.218Z,75.30
2017-12-11T03:25:17.730Z,75.20
2017-12-11T03:27:47.495Z,75.40
2017-12-11T03:30:16.036Z,75.60
2017-12-11T03:32:44.664Z,75.40
2017-12-11T03:35:13.494Z,75.50
2017-12-11T03:37:42.325Z,75.60
2017-12-11T03:40:11.910Z,75.60
2017-12-11T03:42:40.745Z,75.60
2017-12-11T03:45:09.561Z,75.90
2017-12-11T03:47:39.919Z,76.50
2017-12-11T03:50:08.756Z,76.50
2017-12-11T03:52:37.594Z,76.70
2017-12-11T03:55:06.428Z,76.70
2017-12-11T03:57:35.257Z,77.00
2017-12-11T04:00:04.105Z,77.40
2017-12-11T04:02:33.696Z,77.90
2017-12-11T04:05:02.531Z,77.80
2017-12-11T04:07:31.405Z,77.90
2017-12-11T04:10:00.808Z,78.00
2017-12-11T04:12:29.649Z,78.30
2017-12-11T04:14:58.465Z,78.60
2017-12-11T04:17:28.716Z,79.10
2017-12-11T04:19:57.542Z,79.10
2017-12-11T04:22:26.370Z,79.30
2017-12-11T04:24:55.978Z,80.50
2017-12-11T04:27:25.772Z,80.70
2017-12-11T04:29:54.637Z,80.70
2017-12-11T04:32:23.456Z,80.90
2017-12-11T04:34:52.305Z,81.60
2017-12-11T04:37:21.166Z,81.50
2017-12-11T04:39:50.969Z,81.70
2017-12-11T04:42:20.573Z,83.10
2017-12-11T04:44:50.166Z,83.50
2017-12-11T04:47:18.986Z,83.50
2017-12-11T04:49:48.573Z,84.20
2017-12-11T04:52:17.407Z,84.10
2017-12-11T04:54:46.229Z,84.60
2017-12-11T04:57:15.048Z,85.20
2017-12-11T04:59:44.638Z,85.80
2017-12-11T05:02:13.467Z,85.80
2017-12-11T05:04:41.985Z,86.10
2017-12-11T05:07:11.267Z,86.30
2017-12-11T05:09:40.100Z,86.40
2017-12-11T05:12:08.949Z,86.90
2017-12-11T05:14:37.789Z,87.10
2017-12-11T05:17:06.614Z,87.40
2017-12-11T05:19:36.193Z,87.80
2017-12-11T05:22:05.031Z,87.70
2017-12-11T05:24:33.872Z,88.00
2017-12-11T05:27:02.708Z,88.20
2017-12-11T05:29:31.237Z,88.40
2017-12-11T05:32:00.768Z,88.70
2017-12-11T05:34:30.361Z,89.10
2017-12-11T05:36:58.891Z,89.10
2017-12-11T05:39:27.730Z,89.10
2017-12-11T05:41:56.567Z,89.30
2017-12-11T05:44:25.398Z,89.60
2017-12-11T05:46:54.255Z,90.00
2017-12-11T05:49:23.073Z,90.10
2017-12-11T05:51:51.911Z,90.10
2017-12-11T05:54:21.513Z,90.30
2017-12-11T05:56:51.106Z,90.40
2017-12-11T05:59:19.940Z,90.40
2017-12-11T06:01:50.525Z,90.40
2017-12-11T06:04:19.339Z,90.40
2017-12-11T06:06:48.934Z,90.60
2017-12-11T06:09:18.532Z,90.70
2017-12-11T06:11:48.022Z,90.70
2017-12-11T06:14:16.849Z,90.70
2017-12-11T06:16:46.434Z,91.00
2017-12-11T06:19:15.277Z,91.00
2017-12-11T06:21:44.097Z,91.10
2017-12-11T06:24:13.383Z,91.10
2017-12-11T06:26:42.221Z,91.10
2017-12-11T06:29:11.810Z,91.20
2017-12-11T06:31:40.635Z,91.20
2017-12-11T06:34:09.466Z,91.40
2017-12-11T06:36:38.422Z,91.50
2017-12-11T06:39:08.001Z,91.50
2017-12-11T06:41:36.829Z,91.50
2017-12-11T06:44:05.646Z,91.50
2017-12-11T06:46:34.472Z,91.50
2017-12-11T06:49:03.294Z,91.50
2017-12-11T06:51:32.122Z,91.60
2017-12-11T06:54:00.942Z,91.70
2017-12-11T06:56:29.765Z,91.90
2017-12-11T06:58:58.590Z,92.30
2017-12-11T07:01:27.425Z,92.10
2017-12-11T07:03:57.023Z,92.20
2017-12-11T07:06:25.944Z,92.20
2017-12-11T07:08:54.758Z,92.40
2017-12-11T07:11:23.600Z,92.50
2017-12-11T07:13:52.443Z,92.50
2017-12-11T07:16:21.270Z,92.70
2017-12-11T07:18:50.122Z,92.90
2017-12-11T07:21:18.962Z,93.10
2017-12-11T07:23:48.569Z,98.00
2017-12-11T07:26:18.181Z,95.10
2017-12-11T07:28:47.770Z,94.80
2017-12-11T07:31:16.620Z,94.80
2017-12-11T07:33:45.449Z,94.70
2017-12-11T07:36:14.317Z,94.70
2017-12-11T07:38:43.175Z,94.50
2017-12-11T07:41:12.045Z,94.40
2017-12-11T07:43:41.650Z,94.40
2017-12-11T07:46:11.242Z,94.60
2017-12-11T07:48:40.089Z,94.50
2017-12-11T07:51:09.707Z,94.40
2017-12-11T07:53:38.542Z,94.40
2017-12-11T07:56:07.390Z,94.30
2017-12-11T07:58:37.191Z,94.40
2017-12-11T08:01:06.721Z,94.40
2017-12-11T08:03:35.590Z,94.40
2017-12-11T08:06:04.423Z,94.40
2017-12-11T08:08:33.248Z,94.30
2017-12-11T08:11:02.105Z,94.20
2017-12-11T08:13:30.937Z,94.10
2017-12-11T08:16:00.598Z,93.90
2017-12-11T08:18:29.427Z,93.80
2017-12-11T08:20:58.324Z,93.80
2017-12-11T08:23:27.154Z,93.60
2017-12-11T08:25:56.001Z,93.60
2017-12-11T08:28:26.633Z,93.50
2017-12-11T08:30:55.473Z,93.50
2017-12-11T08:33:24.313Z,93.40
2017-12-11T08:35:53.154Z,93.30
2017-12-11T08:38:22.029Z,93.10
2017-12-11T08:40:50.933Z,93.10
2017-12-11T08:43:19.941Z,92.90
2017-12-11T08:45:48.878Z,92.90
2017-12-11T08:48:17.725Z,92.80
2017-12-11T08:50:47.038Z,92.70
2017-12-11T08:53:15.878Z,92.70
2017-12-11T08:55:44.718Z,92.50
2017-12-11T08:58:13.550Z,92.60
2017-12-11T09:00:42.082Z,92.60
2017-12-11T09:03:10.929Z,92.50
2017-12-11T09:05:39.806Z,92.40
2017-12-11T09:08:08.650Z,92.40
2017-12-11T09:10:38.329Z,92.40
2017-12-11T09:13:07.165Z,92.40
2017-12-11T09:15:36.000Z,92.30
2017-12-11T09:18:04.880Z,92.50
2017-12-11T09:20:33.713Z,92.20
2017-12-11T09:23:02.556Z,92.00
2017-12-11T09:25:31.387Z,91.90
2017-12-11T09:28:00.244Z,91.70
2017-12-11T09:30:29.701Z,91.70
2017-12-11T09:32:58.549Z,91.70
2017-12-11T09:35:27.371Z,91.70
2017-12-11T09:37:56.225Z,91.70
2017-12-11T09:40:26.185Z,91.60
2017-12-11T09:42:55.048Z,91.60
2017-12-11T09:45:23.881Z,91.60
2017-12-11T09:47:52.713Z,91.60
2017-12-11T09:50:24.490Z,91.60
2017-12-11T09:52:53.365Z,91.70
2017-12-11T09:55:22.577Z,92.00
2017-12-11T09:57:51.466Z,91.70
2017-12-11T10:00:20.305Z,91.70
2017-12-11T10:02:49.166Z,91.70
2017-12-11T10:05:18.775Z,91.70
2017-12-11T10:07:47.732Z,91.80
2017-12-11T10:10:16.582Z,91.80
2017-12-11T10:12:45.412Z,91.80
2017-12-11T10:15:14.258Z,91.80
2017-12-11T10:17:43.091Z,91.80
2017-12-11T10:20:12.313Z,91.80
2017-12-11T10:22:41.149Z,91.80
2017-12-11T10:25:09.975Z,91.90
2017-12-11T10:27:38.814Z,91.90
2017-12-11T10:30:07.478Z,92.10
2017-12-11T10:32:36.292Z,92.50
2017-12-11T10:35:05.130Z,92.80
2017-12-11T10:37:33.965Z,93.20
2017-12-11T10:42:47.137Z,94.20
2017-12-11T10:45:16.162Z,94.20
2017-12-11T10:47:44.983Z,94.90
2017-12-11T10:50:13.835Z,95.50
2017-12-11T10:52:43.399Z,95.90
2017-12-11T10:55:12.236Z,96.00
2017-12-11T10:57:45.068Z,96.30
2017-12-11T11:00:13.748Z,96.60
2017-12-11T11:02:44.322Z,96.60
2017-12-11T11:05:13.950Z,97.00
2017-12-11T11:07:43.509Z,96.60
2017-12-11T11:10:13.317Z,96.70
2017-12-11T11:12:42.258Z,96.70
2017-12-11T11:15:11.775Z,96.90
2017-12-11T11:17:40.847Z,96.90
2017-12-11T11:20:10.460Z,97.40
2017-12-11T11:22:40.055Z,97.20
2017-12-11T11:25:09.509Z,97.20
2017-12-11T11:27:40.142Z,97.20
2017-12-11T11:30:09.050Z,97.30
2017-12-11T11:32:38.380Z,97.40
2017-12-11T11:35:08.163Z,97.60
2017-12-11T11:40:06.178Z,98.00
2017-12-11T11:42:35.034Z,98.30
2017-12-11T11:45:03.920Z,98.30
2017-12-11T11:47:33.991Z,98.50
2017-12-11T11:50:02.822Z,98.40
2017-12-11T11:52:31.716Z,98.60
2017-12-11T11:55:00.717Z,98.70
2017-12-11T11:57:29.818Z,98.80
2017-12-11T11:59:58.919Z,98.70
2017-12-11T12:02:27.764Z,98.80
2017-12-11T12:04:57.365Z,98.80
2017-12-11T12:07:26.978Z,98.50
2017-12-11T12:09:56.635Z,98.40
2017-12-11T12:12:25.488Z,98.40
2017-12-11T12:14:55.130Z,97.90
2017-12-11T12:17:31.693Z,97.90
2017-12-11T12:20:00.515Z,97.60
2017-12-11T12:22:29.785Z,97.30
2017-12-11T12:24:58.636Z,97.20
2017-12-11T12:27:31.736Z,96.60
2017-12-11T12:30:01.293Z,96.60
2017-12-11T12:32:29.997Z,96.30
2017-12-11T12:34:59.849Z,96.10
2017-12-11T12:37:28.691Z,96.10
2017-12-11T12:39:58.419Z,96.10
2017-12-11T12:42:27.281Z,96.10
2017-12-11T12:44:56.114Z,96.10
2017-12-11T12:47:25.735Z,96.00
2017-12-11T12:49:55.353Z,96.10
2017-12-11T12:52:24.309Z,96.00
2017-12-11T12:54:53.166Z,96.00
2017-12-11T12:57:21.995Z,96.20
2017-12-11T12:59:51.881Z,95.70
2017-12-11T13:02:21.530Z,95.40
2017-12-11T13:04:50.387Z,95.30
2017-12-11T13:07:20.393Z,95.20
2017-12-11T13:09:49.501Z,95.10
2017-12-11T13:12:18.326Z,95.20
2017-12-11T13:14:47.930Z,95.40
2017-12-11T13:17:16.786Z,95.40
2017-12-11T13:19:45.640Z,95.40
2017-12-11T13:22:14.488Z,95.40
2017-12-11T13:24:43.338Z,95.70
2017-12-11T13:27:12.432Z,95.80
2017-12-11T13:29:41.267Z,96.00
2017-12-11T13:32:10.840Z,95.90
2017-12-11T13:34:39.681Z,95.90
2017-12-11T13:37:08.504Z,96.00
2017-12-11T13:39:38.886Z,96.10
2017-12-11T13:42:07.559Z,96.20
2017-12-11T13:44:36.392Z,96.40
2017-12-11T13:47:05.247Z,96.40
2017-12-11T13:49:34.962Z,96.40
2017-12-11T13:52:03.791Z,96.10
2017-12-11T13:54:33.386Z,95.70
2017-12-11T13:57:03.008Z,95.60
2017-12-11T13:59:33.807Z,95.50
2017-12-11T14:02:02.659Z,95.20
2017-12-11T14:04:31.500Z,94.80
2017-12-11T14:07:00.342Z,94.70
2017-12-11T14:09:29.184Z,94.60
2017-12-11T14:11:58.022Z,94.40
2017-12-11T14:14:26.857Z,94.10
2017-12-11T14:16:55.706Z,94.00
2017-12-11T14:19:24.550Z,93.60
2017-12-11T14:21:55.130Z,93.80
2017-12-11T14:24:24.679Z,93.80
2017-12-11T14:26:54.326Z,94.00
2017-12-11T14:29:24.550Z,94.10
2017-12-11T14:31:53.413Z,94.00
2017-12-11T14:34:24.936Z,94.00
2017-12-11T14:36:53.806Z,94.00
2017-12-11T14:39:24.054Z,94.00
2017-12-11T14:44:30.510Z,93.90
2017-12-11T14:47:00.444Z,93.90
2017-12-11T14:49:29.661Z,94.10
2017-12-11T14:51:59.298Z,93.90
2017-12-11T14:54:29.496Z,93.80
2017-12-11T14:56:59.980Z,93.50
2017-12-11T14:59:30.789Z,93.50
2017-12-11T15:02:00.434Z,93.10
2017-12-11T15:04:30.058Z,93.10
2017-12-11T15:06:59.149Z,93.10
2017-12-11T15:09:37.733Z,92.90
2017-12-11T15:12:06.858Z,92.90
2017-12-11T15:14:35.694Z,92.70
2017-12-11T15:17:04.525Z,92.70
2017-12-11T15:19:34.331Z,92.70
2017-12-11T15:22:03.181Z,92.20
2017-12-11T15:24:32.066Z,92.20
2017-12-11T15:27:01.611Z,91.80
2017-12-11T15:29:31.397Z,91.90
2017-12-11T15:32:00.276Z,91.90
2017-12-11T15:34:29.918Z,91.80
2017-12-11T15:36:59.536Z,91.80
2017-12-11T15:39:28.402Z,91.80
2017-12-11T15:41:57.276Z,91.80
2017-12-11T15:44:25.791Z,91.70
2017-12-11T15:46:55.748Z,91.80
2017-12-11T15:49:26.157Z,91.80
2017-12-11T15:51:56.013Z,91.80
2017-12-11T15:54:25.692Z,91.70
2017-12-11T15:56:54.581Z,91.70
2017-12-11T15:59:23.470Z,91.70
2017-12-11T16:01:52.334Z,91.60
2017-12-11T16:04:22.024Z,91.50
2017-12-11T16:06:50.898Z,91.50
2017-12-11T16:09:19.863Z,91.50
2017-12-11T16:11:49.525Z,91.50
2017-12-11T16:14:19.165Z,91.50
2017-12-11T16:16:47.879Z,91.50
2017-12-11T16:19:17.550Z,91.50
2017-12-11T16:21:46.115Z,91.50
2017-12-11T16:24:14.979Z,91.50
2017-12-11T16:26:43.826Z,91.50
2017-12-11T16:29:12.686Z,91.50
2017-12-11T16:34:15.027Z,91.40
2017-12-11T16:36:44.319Z,91.40
2017-12-11T16:39:13.241Z,91.40
2017-12-11T16:41:43.075Z,91.50
2017-12-11T16:46:45.826Z,91.50
2017-12-11T16:49:15.218Z,91.60
2017-12-11T16:51:44.954Z,91.60
2017-12-11T16:54:13.811Z,91.60
2017-12-11T16:56:43.420Z,91.60
2017-12-11T16:59:15.792Z,91.50
2017-12-11T17:01:45.342Z,91.50
2017-12-11T17:04:21.426Z,91.50
2017-12-11T17:06:49.972Z,91.50
2017-12-11T17:09:18.838Z,91.40
2017-12-11T17:11:47.678Z,91.50
2017-12-11T17:14:16.530Z,91.50
2017-12-11T17:16:47.210Z,91.50
2017-12-11T17:19:16.052Z,92.60
2017-12-11T17:21:44.930Z,97.00
2017-12-11T17:24:13.767Z,94.50
2017-12-11T17:26:42.648Z,91.20
2017-12-11T17:29:12.409Z,91.20
2017-12-11T17:31:42.042Z,91.60
2017-12-11T17:34:10.882Z,91.60
2017-12-11T17:36:39.705Z,92.00
2017-12-11T17:39:09.316Z,92.20
2017-12-11T17:41:39.438Z,92.10
2017-12-11T17:44:09.038Z,92.00
2017-12-11T17:46:38.669Z,91.90
2017-12-11T17:49:07.543Z,91.90
2017-12-11T17:51:37.169Z,91.50
2017-12-11T17:54:06.013Z,91.40
2017-12-11T17:56:34.873Z,91.30
2017-12-11T17:59:03.921Z,91.20
2017-12-11T18:01:32.763Z,91.10
2017-12-11T18:04:01.319Z,91.00
2017-12-11T18:06:30.141Z,91.00
2017-12-11T18:08:58.962Z,90.90
2017-12-11T18:11:28.011Z,90.60
2017-12-11T18:13:56.835Z,90.50
2017-12-11T18:16:25.659Z,90.50
2017-12-11T18:18:55.262Z,94.90
2017-12-11T18:21:24.110Z,94.90
2017-12-11T18:23:52.943Z,92.70
2017-12-11T18:26:22.539Z,88.80
2017-12-11T18:28:51.368Z,88.50
2017-12-11T18:31:20.202Z,84.80
2017-12-11T18:33:49.041Z,86.20
2017-12-11T18:36:18.621Z,88.70
2017-12-11T18:38:48.388Z,88.70
2017-12-11T18:41:17.468Z,88.80
2017-12-11T18:43:46.290Z,89.60
2017-12-11T18:46:15.916Z,90.00
2017-12-11T18:48:45.238Z,89.70
2017-12-11T18:51:14.061Z,89.80
2017-12-11T18:53:42.901Z,89.40
2017-12-11T18:56:11.741Z,88.80
2017-12-11T18:58:40.585Z,88.60
2017-12-11T19:01:09.195Z,88.20
2017-12-11T19:03:38.841Z,88.20
2017-12-11T19:06:08.611Z,88.20
2017-12-11T19:08:38.261Z,88.40
2017-12-11T19:11:08.044Z,88.40
2017-12-11T19:13:37.382Z,88.20
2017-12-11T19:16:07.181Z,88.20
2017-12-11T19:18:36.826Z,88.10
2017-12-11T19:21:05.879Z,87.90
2017-12-11T19:23:34.110Z,87.80
2017-12-11T19:26:03.001Z,88.00
2017-12-11T19:28:32.440Z,88.00
2017-12-11T19:31:01.149Z,88.30
2017-12-11T19:33:29.973Z,88.20
2017-12-11T19:35:58.845Z,88.00
2017-12-11T19:38:27.673Z,87.60
2017-12-11T19:40:56.530Z,87.60
2017-12-11T19:43:25.865Z,86.10
2017-12-11T19:45:54.714Z,86.40
2017-12-11T19:48:23.614Z,86.50
2017-12-11T19:50:52.446Z,86.90
2017-12-11T19:53:22.061Z,88.30
2017-12-11T19:55:51.662Z,88.00
2017-12-11T19:58:21.333Z,88.80
2017-12-11T20:00:50.189Z,88.20
2017-12-11T20:03:19.021Z,88.60
2017-12-11T20:05:48.685Z,89.00
2017-12-11T20:08:17.529Z,89.20
2017-12-11T20:10:46.386Z,89.40
2017-12-11T20:13:15.229Z,89.60
2017-12-11T20:15:44.847Z,90.30
2017-12-11T20:18:14.455Z,90.10
2017-12-11T20:20:44.140Z,90.20
2017-12-11T20:23:12.970Z,90.20
2017-12-11T20:25:41.835Z,90.30
2017-12-11T20:28:11.451Z,90.60
2017-12-11T20:30:41.065Z,90.50
2017-12-11T20:33:10.701Z,90.50
2017-12-11T20:35:39.398Z,90.50
2017-12-11T20:38:08.229Z,90.60
2017-12-11T20:40:37.073Z,90.60
2017-12-11T20:43:05.906Z,90.70
2017-12-11T20:45:35.368Z,91.00
2017-12-11T20:48:04.254Z,91.10
2017-12-11T20:50:33.097Z,91.20
2017-12-11T20:53:02.416Z,91.20
2017-12-11T20:55:32.077Z,91.20
2017-12-11T20:58:00.942Z,91.20
2017-12-11T21:00:29.826Z,91.20
2017-12-11T21:02:58.666Z,91.30
2017-12-11T21:05:27.518Z,91.30
2017-12-11T21:07:56.362Z,91.50
2017-12-11T21:10:25.576Z,91.60
2017-12-11T21:12:54.427Z,91.70
2017-12-11T21:15:22.640Z,92.00
2017-12-11T21:17:51.169Z,91.80
2017-12-11T21:20:20.012Z,91.80
2017-12-11T21:22:48.853Z,91.90
2017-12-11T21:25:17.725Z,91.90
2017-12-11T21:27:46.557Z,91.90
2017-12-11T21:30:15.394Z,92.00
2017-12-11T21:32:44.263Z,92.10
2017-12-11T21:35:13.125Z,92.20
2017-12-11T21:37:41.962Z,92.20
2017-12-11T21:40:11.605Z,92.20
2017-12-11T21:42:42.534Z,92.20
2017-12-11T21:45:11.279Z,92.20
2017-12-11T21:47:40.615Z,92.30
2017-12-11T21:50:09.457Z,92.30
2017-12-11T21:52:38.296Z,92.30
2017-12-11T21:55:07.220Z,92.40
2017-12-11T21:57:36.081Z,92.40
2017-12-11T22:00:04.945Z,92.40
2017-12-11T22:02:34.841Z,92.40
2017-12-11T22:05:03.693Z,92.40
2017-12-11T22:07:32.551Z,92.50
2017-12-11T22:10:02.159Z,92.60
2017-12-11T22:12:31.461Z,92.60
2017-12-11T22:15:01.086Z,92.60
2017-12-11T22:17:29.633Z,92.60
2017-12-11T22:19:58.464Z,92.70
2017-12-11T22:22:27.290Z,92.80
2017-12-11T22:24:56.133Z,92.90
2017-12-11T22:27:25.989Z,92.90
2017-12-11T22:29:54.828Z,92.90
2017-12-11T22:32:24.473Z,93.10
2017-12-11T22:34:53.634Z,93.00
2017-12-11T22:37:23.486Z,93.10
2017-12-11T22:39:52.333Z,93.10
2017-12-11T22:42:22.290Z,93.20
2017-12-11T22:44:51.148Z,93.10
2017-12-11T22:47:20.774Z,93.20
2017-12-11T22:49:49.628Z,93.20
2017-12-11T22:52:18.454Z,93.20
2017-12-11T22:54:47.308Z,93.20
2017-12-11T22:57:16.570Z,93.20
2017-12-11T22:59:45.434Z,93.20
2017-12-11T23:02:14.808Z,93.20
2017-12-11T23:04:43.638Z,93.20
2017-12-11T23:07:12.467Z,93.10
2017-12-11T23:09:41.301Z,93.00
2017-12-11T23:12:10.718Z,92.80
2017-12-11T23:14:39.545Z,92.80
2017-12-11T23:17:08.385Z,92.70
2017-12-11T23:19:37.979Z,92.80
2017-12-11T23:22:06.817Z,92.80
2017-12-11T23:24:35.645Z,92.90
2017-12-11T23:27:04.512Z,92.70
2017-12-11T23:29:33.356Z,92.80
2017-12-11T23:32:02.193Z,92.70
2017-12-11T23:34:31.016Z,92.80
2017-12-11T23:36:59.942Z,92.70
2017-12-11T23:39:28.769Z,92.60
2017-12-11T23:41:57.606Z,92.60
2017-12-11T23:44:27.317Z,92.60
2017-12-11T23:46:56.905Z,92.60
2017-12-11T23:49:25.725Z,92.60
2017-12-11T23:51:55.333Z,92.60
2017-12-11T23:54:34.096Z,92.50
2017-12-11T23:57:02.927Z,92.50
2017-12-11T23:59:32.539Z,92.50
